Time;durP1;ratioP1;P1;durP2;ratioP2;P2;SDS_P1;SDS_P2;PMS_P1;PMS_P2;Temp;Humidity;BMP_temperature;BMP_pressure;BME280_temperature;BME280_humidity;BME280_pressure;Samples;Min_cycle;Max_cycle;Signal;HPM_P1;HPM_P2
2022/10/03 00:01:46;;;;;;;5.07;1.50;;;10.80;99.90;;;;;;5044769;28;20041;-35
2022/10/03 00:04:50;;;;;;;7.32;0.90;;;10.80;99.90;;;;;;5052752;28;20067;-36
2022/10/03 00:07:40;;;;;;;8.32;1.00;;;10.80;99.90;;;;;;4989108;28;20539;-36
2022/10/03 00:10:34;;;;;;;5.80;0.60;;;10.80;99.90;;;;;;5043230;28;20045;-36
2022/10/03 00:13:18;;;;;;;5.57;0.60;;;10.80;99.90;;;;;;5050296;28;20066;-37
2022/10/03 00:16:19;;;;;;;6.25;0.80;;;10.80;99.90;;;;;;5052756;28;20045;-37
2022/10/03 00:18:58;;;;;;;5.93;0.93;;;10.70;99.90;;;;;;5050687;28;20494;-35
2022/10/03 00:21:57;;;;;;;5.68;0.90;;;10.70;99.90;;;;;;5042685;28;20041;-36
2022/10/03 00:24:26;;;;;;;4.78;0.90;;;10.70;99.90;;;;;;5044441;28;20405;-36
2022/10/03 00:27:21;;;;;;;12.52;1.10;;;10.70;99.90;;;;;;5053703;28;20041;-36
2022/10/03 00:30:01;;;;;;;6.43;1.25;;;10.70;99.90;;;;;;5027538;28;20160;-35
2022/10/03 00:32:27;;;;;;;5.43;0.70;;;10.70;99.90;;;;;;5059345;28;20131;-35
2022/10/03 00:35:12;;;;;;;3.70;0.50;;;10.60;99.90;;;;;;5052351;28;20123;-37
2022/10/03 00:37:38;;;;;;;4.72;0.60;;;10.60;99.90;;;;;;5050467;28;20533;-35
2022/10/03 00:40:27;;;;;;;9.00;0.73;;;10.60;99.90;;;;;;5047716;28;20045;-37
2022/10/03 00:43:29;;;;;;;4.35;0.63;;;10.60;99.90;;;;;;5048968;28;20478;-36
2022/10/03 00:46:20;;;;;;;6.38;0.80;;;10.60;99.90;;;;;;5046412;28;20124;-35
2022/10/03 00:49:00;;;;;;;4.38;0.80;;;10.60;99.90;;;;;;5045892;28;20037;-35
2022/10/03 00:52:07;;;;;;;3.92;0.70;;;10.60;99.90;;;;;;5037401;28;20041;-35
2022/10/03 00:54:51;;;;;;;6.07;0.90;;;10.60;99.90;;;;;;5050431;28;20045;-36
2022/10/03 00:57:35;;;;;;;8.43;0.68;;;10.60;99.90;;;;;;5048917;28;20057;-37
2022/10/03 01:00:17;;;;;;;4.85;0.50;;;10.60;99.90;;;;;;5052095;28;20079;-35
2022/10/03 01:02:53;;;;;;;7.72;0.90;;;10.60;99.90;;;;;;5046959;28;20045;-35
2022/10/03 01:05:49;;;;;;;7.30;0.60;;;10.60;99.90;;;;;;5055911;28;20090;-36
2022/10/03 01:08:34;;;;;;;3.22;0.45;;;10.60;99.90;;;;;;5055538;28;20044;-36
2022/10/03 01:11:14;;;;;;;4.18;0.88;;;10.60;99.90;;;;;;5051258;28;20048;-36
2022/10/03 01:14:09;;;;;;;7.97;0.60;;;10.60;99.90;;;;;;5049614;28;20043;-36
2022/10/03 01:16:46;;;;;;;4.35;0.73;;;10.50;99.90;;;;;;5049169;28;20040;-35
2022/10/03 01:19:54;;;;;;;5.05;0.60;;;10.50;99.90;;;;;;5049680;28;20678;-36
2022/10/03 01:22:42;;;;;;;4.25;0.45;;;10.50;99.90;;;;;;5053444;28;20076;-36
2022/10/03 01:25:30;;;;;;;5.53;0.55;;;10.50;99.90;;;;;;5048199;28;20762;-36
2022/10/03 01:31:01;;;;;;;7.20;0.57;;;10.40;99.90;;;;;;5043250;28;20069;-35
2022/10/03 01:33:33;;;;;;;4.15;0.85;;;10.40;99.90;;;;;;5055496;28;20123;-36
2022/10/03 01:36:31;;;;;;;6.05;0.68;;;10.40;99.90;;;;;;5048237;28;20456;-36
2022/10/03 01:39:10;;;;;;;5.10;0.88;;;10.40;99.90;;;;;;5031075;28;20500;-35
2022/10/03 01:42:00;;;;;;;4.90;0.60;;;10.30;99.90;;;;;;5052546;28;20045;-36
2022/10/03 01:44:43;;;;;;;4.15;0.52;;;10.30;99.90;;;;;;5051286;28;20496;-35
2022/10/03 01:47:38;;;;;;;4.90;0.40;;;10.20;99.90;;;;;;5050910;28;20036;-36
2022/10/03 01:50:49;;;;;;;4.70;0.55;;;10.20;99.90;;;;;;5051248;28;20044;-35
2022/10/03 01:53:39;;;;;;;4.32;0.82;;;10.10;99.90;;;;;;5046989;28;20128;-36
2022/10/03 01:56:34;;;;;;;4.10;0.70;;;10.10;99.90;;;;;;5048939;28;20530;-35
2022/10/03 01:59:28;;;;;;;0.95;0.28;;;10.00;99.90;;;;;;4973785;28;20046;-36
2022/10/03 02:02:32;;;;;;;1.70;0.20;;;10.00;99.90;;;;;;5046589;28;20041;-37
2022/10/03 02:05:13;;;;;;;2.58;0.20;;;10.00;99.90;;;;;;5047769;28;20504;-35
2022/10/03 02:07:54;;;;;;;2.10;0.40;;;9.90;99.90;;;;;;5048512;28;20503;-36
2022/10/03 02:10:44;;;;;;;3.58;0.22;;;9.90;99.90;;;;;;5048090;28;20481;-36
2022/10/03 02:13:29;;;;;;;2.60;0.40;;;9.90;99.90;;;;;;5046520;28;20045;-35
2022/10/03 02:16:01;;;;;;;4.68;0.35;;;9.80;99.90;;;;;;5057019;28;20040;-35
2022/10/03 02:18:48;;;;;;;4.70;0.43;;;9.80;99.90;;;;;;5056188;28;20516;-35
2022/10/03 02:21:22;;;;;;;3.42;0.52;;;9.80;99.90;;;;;;5050766;28;20032;-35
2022/10/03 02:24:03;;;;;;;2.10;0.40;;;9.80;99.90;;;;;;5049672;28;20080;-36
2022/10/03 02:27:06;;;;;;;1.73;0.30;;;9.70;99.90;;;;;;5051341;28;20147;-36
2022/10/03 02:29:40;;;;;;;3.25;0.30;;;9.70;99.90;;;;;;5048579;28;20044;-35
2022/10/03 02:32:16;;;;;;;1.85;0.55;;;9.70;99.90;;;;;;5055127;28;20052;-35
2022/10/03 02:35:19;;;;;;;4.40;0.50;;;9.70;99.90;;;;;;5051336;28;20149;-37
2022/10/03 02:38:16;;;;;;;1.98;0.22;;;9.70;99.90;;;;;;5026906;28;20049;-36
2022/10/03 02:41:04;;;;;;;2.25;0.30;;;9.60;99.90;;;;;;5048430;28;20110;-35
2022/10/03 02:43:54;;;;;;;3.58;0.35;;;9.70;99.90;;;;;;5051883;28;20494;-35
2022/10/03 02:46:38;;;;;;;5.38;0.35;;;9.60;99.90;;;;;;5053663;28;20044;-35
2022/10/03 02:49:41;;;;;;;19.60;1.95;;;9.60;99.90;;;;;;5050778;28;20048;-35
2022/10/03 02:52:31;;;;;;;9.90;0.60;;;9.60;99.90;;;;;;5060289;28;20059;-35
2022/10/03 02:55:05;;;;;;;6.05;0.80;;;9.50;99.90;;;;;;5051180;28;20120;-35
2022/10/03 02:57:59;;;;;;;1.25;0.30;;;9.50;99.90;;;;;;5055680;28;20037;-35
2022/10/03 03:01:02;;;;;;;5.30;1.23;;;9.50;99.90;;;;;;5046068;28;20040;-36
2022/10/03 03:04:06;;;;;;;1.55;0.30;;;9.50;99.90;;;;;;5050328;28;20058;-36
2022/10/03 03:06:58;;;;;;;2.72;0.40;;;9.50;99.90;;;;;;5032914;28;20040;-35
2022/10/03 03:09:54;;;;;;;5.65;0.50;;;9.50;99.90;;;;;;5050633;28;20456;-34
2022/10/03 03:12:38;;;;;;;2.22;0.40;;;9.50;99.90;;;;;;5049534;28;20482;-36
2022/10/03 03:15:52;;;;;;;2.65;0.47;;;9.50;99.90;;;;;;5054166;28;20401;-36
2022/10/03 03:18:43;;;;;;;5.22;2.08;;;9.50;99.90;;;;;;5054328;28;20056;-37
2022/10/03 03:21:26;;;;;;;5.95;1.27;;;9.50;99.90;;;;;;5038046;28;20114;-36
2022/10/03 03:24:31;;;;;;;5.68;0.40;;;9.40;99.90;;;;;;5049750;28;20064;-37
2022/10/03 03:27:00;;;;;;;2.03;0.30;;;9.40;99.90;;;;;;5047908;28;20044;-35
2022/10/03 03:30:01;;;;;;;2.75;0.60;;;9.40;99.90;;;;;;5058009;28;20182;-35
2022/10/03 03:32:41;;;;;;;4.68;0.25;;;9.30;99.90;;;;;;5049944;28;20048;-36
2022/10/03 03:35:45;;;;;;;1.73;0.25;;;9.30;99.90;;;;;;5049537;28;20491;-35
2022/10/03 03:38:52;;;;;;;1.50;0.20;;;9.30;99.90;;;;;;5050363;28;20445;-35
2022/10/03 03:41:39;;;;;;;1.58;0.35;;;9.30;99.90;;;;;;5024813;28;20967;-35
2022/10/03 03:44:28;;;;;;;4.53;0.40;;;9.30;99.90;;;;;;5052613;28;20379;-36
2022/10/03 03:47:09;;;;;;;1.75;0.40;;;9.30;99.90;;;;;;5037384;28;20052;-39
2022/10/03 03:50:10;;;;;;;12.82;0.95;;;9.30;99.90;;;;;;5045806;28;20045;-36
2022/10/03 03:52:56;;;;;;;8.00;0.45;;;9.20;99.90;;;;;;5047821;28;20041;-37
2022/10/03 03:56:01;;;;;;;2.13;0.20;;;9.10;99.90;;;;;;5009341;28;20053;-36
2022/10/03 03:58:52;;;;;;;1.58;0.32;;;9.00;99.90;;;;;;5044931;28;20060;-36
2022/10/03 04:01:24;;;;;;;1.65;0.30;;;9.00;99.90;;;;;;5051616;28;20509;-35
2022/10/03 04:04:20;;;;;;;1.08;0.10;;;9.00;99.90;;;;;;5048121;28;20044;-36
2022/10/03 04:07:06;;;;;;;0.57;0.20;;;8.90;99.90;;;;;;5050955;28;20060;-35
2022/10/03 04:10:09;;;;;;;0.73;0.20;;;8.90;99.90;;;;;;5046387;28;20036;-36
2022/10/03 04:12:54;;;;;;;1.55;0.30;;;8.90;99.90;;;;;;5047460;28;20032;-37
2022/10/03 04:16:04;;;;;;;0.95;0.22;;;8.90;99.90;;;;;;5052995;28;20363;-36
2022/10/03 04:19:07;;;;;;;4.40;0.32;;;8.90;99.90;;;;;;5010043;28;20049;-35
2022/10/03 04:21:46;;;;;;;3.47;0.43;;;8.90;99.90;;;;;;5011873;28;20111;-36
2022/10/03 04:24:20;;;;;;;3.72;0.85;;;8.90;99.90;;;;;;5049867;28;20043;-36
2022/10/03 04:26:58;;;;;;;2.95;0.40;;;8.90;99.90;;;;;;5051561;28;20041;-36
2022/10/03 04:29:47;;;;;;;1.40;0.30;;;8.90;99.90;;;;;;5048689;28;20375;-36
2022/10/03 04:32:35;;;;;;;2.67;0.40;;;8.80;99.90;;;;;;5056948;28;20174;-36
2022/10/03 04:35:15;;;;;;;2.30;0.30;;;8.80;99.90;;;;;;5049157;28;20405;-36
2022/10/03 04:37:48;;;;;;;0.93;0.40;;;8.80;99.90;;;;;;5049004;28;20479;-36
2022/10/03 04:40:17;;;;;;;1.38;0.20;;;8.80;99.90;;;;;;5048998;28;20044;-36
2022/10/03 04:43:08;;;;;;;3.20;0.50;;;8.80;99.90;;;;;;5046967;28;20037;-36
2022/10/03 04:45:52;;;;;;;1.35;0.30;;;8.80;99.90;;;;;;5047204;28;20049;-36
2022/10/03 04:48:39;;;;;;;3.20;0.50;;;8.70;99.90;;;;;;5054741;28;20048;-36
2022/10/03 04:51:36;;;;;;;9.35;0.75;;;8.70;99.90;;;;;;5053407;28;20509;-36
2022/10/03 04:54:22;;;;;;;10.30;0.90;;;8.70;99.90;;;;;;5043385;28;20037;-37
2022/10/03 04:57:16;;;;;;;3.17;0.90;;;8.80;99.90;;;;;;5036602;28;20064;-36
2022/10/03 05:00:09;;;;;;;2.45;0.43;;;8.80;99.90;;;;;;5044787;28;20032;-35
2022/10/03 05:03:25;;;;;;;1.58;0.40;;;8.70;99.90;;;;;;5050194;28;20391;-36
2022/10/03 05:06:06;;;;;;;6.97;0.75;;;8.70;99.90;;;;;;4978524;28;20480;-35
2022/10/03 05:08:45;;;;;;;3.28;0.40;;;8.70;99.90;;;;;;5048259;28;20506;-35
2022/10/03 05:11:29;;;;;;;7.82;0.40;;;8.60;99.90;;;;;;5049602;28;20135;-36
2022/10/03 05:14:15;;;;;;;1.42;0.43;;;8.60;99.90;;;;;;5049411;28;20036;-35
2022/10/03 05:16:53;;;;;;;3.60;0.38;;;8.60;99.90;;;;;;5048936;28;20029;-36
2022/10/03 05:19:40;;;;;;;2.38;0.30;;;8.60;99.90;;;;;;5046289;28;20045;-36
2022/10/03 05:22:22;;;;;;;18.50;1.05;;;8.50;99.90;;;;;;5052613;28;20040;-35
2022/10/03 05:25:22;;;;;;;16.85;1.23;;;8.50;99.90;;;;;;5048945;28;20513;-35
2022/10/03 05:28:00;;;;;;;18.95;1.15;;;8.50;99.90;;;;;;5049587;28;20043;-36
2022/10/03 05:30:43;;;;;;;2.95;0.40;;;8.40;99.90;;;;;;5048207;28;20130;-36
2022/10/03 05:33:33;;;;;;;6.10;0.60;;;8.40;99.90;;;;;;5047558;28;20048;-37
2022/10/03 05:36:05;;;;;;;2.17;0.40;;;8.30;99.90;;;;;;5047736;28;20080;-36
2022/10/03 05:38:31;;;;;;;7.57;1.00;;;8.30;99.90;;;;;;5047725;28;20041;-36
2022/10/03 05:41:02;;;;;;;6.28;1.17;;;8.40;99.90;;;;;;5047551;28;20045;-36
2022/10/03 05:43:35;;;;;;;19.63;1.38;;;8.30;99.90;;;;;;5031459;28;20127;-37
2022/10/03 05:46:19;;;;;;;68.80;5.22;;;8.40;99.90;;;;;;5056984;28;20037;-37
2022/10/03 05:49:07;;;;;;;24.73;1.73;;;8.30;99.90;;;;;;5051615;28;20029;-37
2022/10/03 05:52:11;;;;;;;54.55;3.47;;;8.30;99.90;;;;;;5058399;28;20048;-36
2022/10/03 05:55:00;;;;;;;20.00;1.55;;;8.30;99.90;;;;;;5049948;28;20504;-36
2022/10/03 05:58:11;;;;;;;3.55;0.73;;;8.30;99.90;;;;;;5049129;28;20119;-36
2022/10/03 06:00:36;;;;;;;4.85;0.60;;;8.30;99.90;;;;;;5050449;28;20359;-37
2022/10/03 06:03:27;;;;;;;3.00;0.50;;;8.30;99.90;;;;;;5046984;28;20045;-37
2022/10/03 06:06:02;;;;;;;1.85;0.80;;;8.40;99.90;;;;;;5048516;28;20514;-36
2022/10/03 06:08:50;;;;;;;3.30;0.90;;;8.40;99.90;;;;;;5045955;28;20128;-36
2022/10/03 06:11:37;;;;;;;14.82;1.20;;;8.40;99.90;;;;;;5049570;28;20075;-37
2022/10/03 06:14:32;;;;;;;6.30;0.70;;;8.40;99.90;;;;;;5055525;28;20107;-37
2022/10/03 06:17:18;;;;;;;2.85;0.60;;;8.50;99.90;;;;;;5058344;28;20056;-37
2022/10/03 06:19:49;;;;;;;1.70;0.40;;;8.50;99.90;;;;;;5019935;28;20052;-38
2022/10/03 06:22:34;;;;;;;3.92;0.50;;;8.40;99.90;;;;;;5053456;28;20147;-38
2022/10/03 06:25:24;;;;;;;1.42;0.40;;;8.50;99.90;;;;;;5051123;28;20079;-38
2022/10/03 06:28:17;;;;;;;0.90;0.30;;;8.50;99.90;;;;;;5054774;28;20043;-38
2022/10/03 06:31:01;;;;;;;2.90;0.40;;;8.50;99.90;;;;;;5050791;28;20505;-38
2022/10/03 06:34:04;;;;;;;1.00;0.40;;;8.50;99.90;;;;;;5055215;28;20051;-38
2022/10/03 06:36:34;;;;;;;0.75;0.30;;;8.60;99.90;;;;;;5051085;28;20072;-38
2022/10/03 06:39:47;;;;;;;1.67;0.40;;;8.60;99.90;;;;;;5050792;28;20047;-38
2022/10/03 06:42:20;;;;;;;2.92;0.30;;;8.70;99.90;;;;;;5039831;28;20202;-37
2022/10/03 06:44:58;;;;;;;;;;;8.70;99.90;;;;;;5058298;28;20474;-37
2022/10/03 06:47:41;;;;;;;3.20;0.50;;;8.70;99.90;;;;;;5046935;28;19925;-37
2022/10/03 06:50:26;;;;;;;3.10;0.60;;;8.70;99.90;;;;;;5052501;28;20256;-37
2022/10/03 06:53:27;;;;;;;1.77;0.45;;;8.80;99.90;;;;;;5041844;28;20483;-36
2022/10/03 06:56:01;;;;;;;3.97;0.60;;;8.80;99.90;;;;;;4976146;28;20147;-36
2022/10/03 06:58:52;;;;;;;2.90;0.63;;;8.80;99.90;;;;;;5047423;28;20119;-37
2022/10/03 07:01:49;;;;;;;7.15;0.70;;;8.90;99.90;;;;;;5048944;28;20133;-37
2022/10/03 07:04:47;;;;;;;4.82;1.00;;;8.90;99.90;;;;;;5051078;28;20093;-36
2022/10/03 07:07:43;;;;;;;5.00;0.85;;;9.00;99.90;;;;;;5057610;28;20094;-38
2022/10/03 07:10:33;;;;;;;3.25;0.75;;;9.00;99.90;;;;;;5047405;28;20052;-36
2022/10/03 07:13:05;;;;;;;8.50;1.13;;;9.10;99.90;;;;;;5049011;28;20091;-37
2022/10/03 07:15:48;;;;;;;2.13;0.70;;;9.20;99.90;;;;;;5044853;28;20048;-37
2022/10/03 07:18:24;;;;;;;;;;;9.30;99.90;;;;;;5048979;28;20698;-38
2022/10/03 07:20:53;;;;;;;3.03;0.70;;;9.40;99.90;;;;;;5046847;28;19924;-37
2022/10/03 07:23:31;;;;;;;7.97;1.30;;;9.40;99.90;;;;;;5044317;28;20048;-37
2022/10/03 07:26:25;;;;;;;4.85;1.13;;;9.50;99.90;;;;;;5045886;28;20516;-36
2022/10/03 07:29:07;;;;;;;5.05;1.13;;;9.60;99.90;;;;;;5030011;28;20056;-37
2022/10/03 07:31:45;;;;;;;;;;;9.70;99.90;;;;;;5048094;28;20601;-37
2022/10/03 07:34:48;;;;;;;8.25;1.40;;;9.80;99.90;;;;;;5042364;28;19916;-37
2022/10/03 07:40:30;;;;;;;8.52;2.22;;;10.00;99.90;;;;;;5047491;28;20395;-37
2022/10/03 07:43:07;;;;;;;6.93;1.50;;;10.20;99.90;;;;;;5052410;28;20058;-36
2022/10/03 07:45:39;;;;;;;10.98;1.90;;;10.30;99.90;;;;;;5050816;28;20032;-37
2022/10/03 07:48:14;;;;;;;7.72;1.95;;;10.50;99.90;;;;;;5042725;28;20437;-37
2022/10/03 07:50:51;;;;;;;12.10;2.13;;;10.60;99.90;;;;;;5054700;28;20036;-36
2022/10/03 07:53:50;;;;;;;6.18;1.02;;;10.80;99.90;;;;;;5051563;28;20146;-37
2022/10/03 07:56:19;;;;;;;6.53;1.17;;;11.00;99.90;;;;;;5043599;28;20045;-37
2022/10/03 07:59:12;;;;;;;7.82;1.50;;;11.10;99.90;;;;;;5047497;28;20405;-37
2022/10/03 08:01:46;;;;;;;5.88;1.17;;;11.30;99.90;;;;;;5048785;28;20041;-37
2022/10/03 08:04:49;;;;;;;7.80;2.08;;;11.50;99.90;;;;;;5050111;28;20056;-37
2022/10/03 08:07:31;;;;;;;6.75;1.38;;;11.70;99.90;;;;;;5051388;28;20483;-38
2022/10/03 08:10:41;;;;;;;9.95;1.10;;;11.80;99.90;;;;;;5046879;28;20041;-38
2022/10/03 08:13:16;;;;;;;6.88;1.00;;;12.00;99.90;;;;;;5056800;28;20494;-38
2022/10/03 08:16:12;;;;;;;7.25;0.90;;;12.10;99.90;;;;;;5048584;28;20037;-38
2022/10/03 08:18:58;;;;;;;3.33;0.60;;;12.30;99.90;;;;;;5049951;28;20041;-38
2022/10/03 08:21:55;;;;;;;10.63;0.80;;;12.50;99.90;;;;;;5045300;28;20047;-37
2022/10/03 08:24:52;;;;;;;5.13;0.80;;;12.60;99.90;;;;;;5042113;28;20045;-36
2022/10/03 08:27:34;;;;;;;8.98;0.73;;;12.80;99.90;;;;;;5028580;28;20398;-37
2022/10/03 08:30:20;;;;;;;12.03;1.23;;;12.90;99.90;;;;;;5050401;28;20094;-36
2022/10/03 08:33:05;;;;;;;7.22;0.90;;;13.10;99.90;;;;;;5047889;28;20498;-36
2022/10/03 08:36:05;;;;;;;4.88;0.65;;;13.20;99.90;;;;;;5052573;28;20109;-36
2022/10/03 08:38:39;;;;;;;5.15;0.73;;;13.40;99.90;;;;;;5054878;28;20072;-36
2022/10/03 08:41:36;;;;;;;3.47;0.50;;;13.50;99.90;;;;;;5047199;28;20045;-36
2022/10/03 08:44:43;;;;;;;4.93;0.90;;;13.70;99.90;;;;;;5043995;28;20480;-37
2022/10/03 08:47:33;;;;;;;5.85;0.50;;;13.80;99.90;;;;;;5047657;28;20067;-36
2022/10/03 08:50:33;;;;;;;7.43;0.50;;;13.90;99.90;;;;;;5044584;28;20494;-37
2022/10/03 08:53:32;;;;;;;6.72;0.82;;;14.10;99.90;;;;;;5040579;28;20155;-37
2022/10/03 08:56:26;;;;;;;5.90;0.68;;;14.10;99.90;;;;;;5043024;28;20041;-37
2022/10/03 08:59:11;;;;;;;5.43;0.70;;;14.30;99.90;;;;;;5055738;28;20064;-35
2022/10/03 09:01:58;;;;;;;6.22;0.50;;;14.30;99.90;;;;;;5048153;28;20041;-36
2022/10/03 09:05:18;;;;;;;7.43;0.70;;;14.40;99.90;;;;;;5049824;28;20446;-36
2022/10/03 09:08:13;;;;;;;4.78;0.43;;;14.60;99.90;;;;;;5050017;28;20102;-36
2022/10/03 09:11:17;;;;;;;5.65;0.50;;;14.60;99.90;;;;;;5032477;28;20263;-36
2022/10/03 09:14:02;;;;;;;7.32;0.60;;;14.70;99.90;;;;;;5048465;28;20501;-36
2022/10/03 09:16:54;;;;;;;3.25;0.40;;;14.80;99.90;;;;;;5025211;28;20051;-36
2022/10/03 09:19:51;;;;;;;6.60;0.40;;;14.90;99.90;;;;;;5046357;28;20049;-36
2022/10/03 09:22:46;;;;;;;6.47;0.55;;;15.00;99.90;;;;;;5048145;28;20056;-36
2022/10/03 09:25:42;;;;;;;5.07;0.90;;;15.20;99.90;;;;;;5045940;28;20060;-37
2022/10/03 09:28:27;;;;;;;7.28;0.65;;;15.30;99.90;;;;;;5045277;28;20041;-36
2022/10/03 09:30:57;;;;;;;4.50;0.50;;;15.40;99.90;;;;;;5046678;28;20045;-44
2022/10/03 09:34:08;;;;;;;6.47;1.92;;;15.50;99.90;;;;;;5046982;28;20037;-36
2022/10/03 09:37:21;;;;;;;8.73;0.75;;;15.50;99.90;;;;;;5031768;28;20056;-36
2022/10/03 09:40:18;;;;;;;5.55;0.70;;;15.50;99.90;;;;;;5037497;28;20494;-36
2022/10/03 09:42:58;;;;;;;6.22;0.60;;;15.60;99.90;;;;;;5047085;28;20145;-36
2022/10/03 09:45:50;;;;;;;3.38;0.40;;;15.60;99.90;;;;;;5049139;28;20040;-36
2022/10/03 09:48:36;;;;;;;4.60;0.40;;;15.70;99.90;;;;;;5045103;28;20056;-36
2022/10/03 09:51:15;;;;;;;6.40;0.68;;;15.80;99.90;;;;;;5039135;28;20045;-37
2022/10/03 09:54:21;;;;;;;11.02;1.35;;;15.80;99.90;;;;;;5038107;28;20045;-37
2022/10/03 09:56:55;;;;;;;3.95;0.40;;;15.90;99.90;;;;;;5048191;28;20044;-37
2022/10/03 09:59:33;;;;;;;4.80;0.93;;;16.00;99.90;;;;;;5048310;28;20079;-37
2022/10/03 10:02:17;;;;;;;5.18;1.25;;;16.00;99.90;;;;;;5051027;28;20404;-37
2022/10/03 10:04:57;;;;;;;4.03;0.40;;;16.10;99.90;;;;;;5048890;28;20524;-38
2022/10/03 10:07:42;;;;;;;5.22;0.60;;;16.20;99.90;;;;;;5047106;28;20127;-37
2022/10/03 10:10:39;;;;;;;6.47;0.57;;;16.30;99.90;;;;;;5042287;28;20524;-38
2022/10/03 10:13:26;;;;;;;4.38;0.50;;;16.30;99.90;;;;;;5048289;28;20036;-37
2022/10/03 10:16:21;;;;;;;3.30;0.60;;;16.30;99.90;;;;;;5040607;28;20037;-37
2022/10/03 10:18:56;;;;;;;6.28;1.15;;;16.40;99.90;;;;;;5044914;28;20048;-37
2022/10/03 10:21:51;;;;;;;6.43;0.50;;;16.30;99.90;;;;;;5048735;28;20043;-37
2022/10/03 10:24:45;;;;;;;5.35;0.70;;;16.40;99.90;;;;;;5052428;28;20770;-37
2022/10/03 10:27:14;;;;;;;4.13;0.40;;;16.50;99.90;;;;;;5047682;28;20490;-37
2022/10/03 10:30:14;;;;;;;5.82;0.95;;;16.50;99.90;;;;;;5045951;28;20068;-37
2022/10/03 10:32:51;;;;;;;5.45;0.60;;;16.50;99.80;;;;;;5048252;28;20040;-37
2022/10/03 10:35:32;;;;;;;5.75;0.70;;;16.60;99.90;;;;;;5047913;28;20479;-37
2022/10/03 10:38:19;;;;;;;6.57;0.75;;;16.60;99.80;;;;;;5038585;28;20075;-37
2022/10/03 10:41:40;;;;;;;6.10;0.60;;;16.60;99.90;;;;;;5050764;28;20458;-36
2022/10/03 10:44:29;;;;;;;3.97;0.60;;;16.70;98.90;;;;;;5046215;28;20040;-37
2022/10/03 10:47:12;;;;;;;4.45;0.68;;;16.70;99.30;;;;;;5030304;28;20522;-38
2022/10/03 10:50:12;;;;;;;2.42;0.35;;;16.80;99.20;;;;;;5050521;28;20502;-38
2022/10/03 10:52:59;;;;;;;3.80;0.98;;;16.90;98.30;;;;;;5047667;28;20387;-38
2022/10/03 10:55:37;;;;;;;3.42;1.00;;;17.10;98.90;;;;;;5047021;28;20520;-38
2022/10/03 10:58:38;;;;;;;2.95;0.55;;;17.10;98.00;;;;;;5052533;28;20120;-37
2022/10/03 11:01:31;;;;;;;5.20;0.95;;;17.20;96.70;;;;;;5047168;28;20394;-36
2022/10/03 11:04:35;;;;;;;3.15;0.40;;;17.40;97.60;;;;;;5026255;28;20045;-36
2022/10/03 11:07:11;;;;;;;3.42;0.50;;;17.50;96.40;;;;;;5050344;28;20037;-36
2022/10/03 11:10:05;;;;;;;5.03;0.55;;;17.50;97.10;;;;;;5049720;28;20041;-37
2022/10/03 11:12:36;;;;;;;2.78;0.43;;;17.70;96.20;;;;;;5051595;28;20040;-37
2022/10/03 11:15:11;;;;;;;2.67;0.50;;;17.80;95.70;;;;;;5048727;28;20155;-37
2022/10/03 11:18:14;;;;;;;2.53;0.20;;;17.90;95.80;;;;;;5042011;28;20049;-37
2022/10/03 11:20:40;;;;;;;;;;;17.90;94.10;;;;;;5040765;28;20585;-37
2022/10/03 11:23:43;;;;;;;6.35;0.50;;;17.80;92.50;;;;;;5048795;28;20006;-36
2022/10/03 11:26:46;;;;;;;3.40;0.45;;;17.80;92.50;;;;;;5046608;28;20094;-36
2022/10/03 11:29:41;;;;;;;3.45;0.45;;;17.80;93.00;;;;;;5048100;28;20056;-36
2022/10/03 11:32:23;;;;;;;5.30;0.38;;;17.80;93.40;;;;;;5033222;28;20045;-36
2022/10/03 11:35:18;;;;;;;2.47;0.38;;;17.80;93.70;;;;;;5044230;28;20036;-36
2022/10/03 11:38:02;;;;;;;3.03;0.55;;;17.90;92.90;;;;;;5037165;28;20051;-37
2022/10/03 11:40:52;;;;;;;5.15;0.65;;;18.00;92.50;;;;;;5048517;28;20041;-37
2022/10/03 11:43:51;;;;;;;4.22;0.40;;;18.00;89.30;;;;;;5044872;28;20114;-36
2022/10/03 11:46:29;;;;;;;3.33;0.50;;;18.10;89.50;;;;;;5028710;28;20735;-37
2022/10/03 11:49:29;;;;;;;2.67;0.40;;;18.20;92.10;;;;;;5032572;28;20040;-38
2022/10/03 11:52:31;;;;;;;7.10;0.70;;;18.20;91.00;;;;;;5011705;28;20069;-37
2022/10/03 11:55:29;;;;;;;6.22;0.63;;;18.20;89.00;;;;;;5000469;28;20049;-37
2022/10/03 11:58:11;;;;;;;1.98;0.30;;;18.20;90.30;;;;;;5024179;28;20036;-38
2022/10/03 12:00:40;;;;;;;3.88;0.45;;;18.40;90.30;;;;;;5044640;28;20541;-36
2022/10/03 12:03:25;;;;;;;3.70;0.40;;;18.70;90.20;;;;;;5050158;28;20049;-37
2022/10/03 12:09:09;;;;;;;2.75;0.40;;;19.10;86.60;;;;;;5043603;28;20074;-37
2022/10/03 12:12:08;;;;;;;4.43;0.68;;;19.20;82.60;;;;;;5049724;28;20033;-38
2022/10/03 12:14:45;;;;;;;3.28;0.40;;;19.50;82.80;;;;;;5018128;28;20056;-37
2022/10/03 12:17:21;;;;;;;2.10;0.40;;;19.80;80.40;;;;;;5052292;28;20044;-38
2022/10/03 12:20:41;;;;;;;2.83;0.30;;;20.00;79.30;;;;;;5043452;28;20119;-37
2022/10/03 12:23:31;;;;;;;3.83;0.30;;;20.40;72.50;;;;;;5037308;28;20410;-37
2022/10/03 12:26:01;;;;;;;3.70;0.50;;;20.50;74.60;;;;;;5048846;28;20498;-37
2022/10/03 12:28:40;;;;;;;3.70;0.28;;;20.80;74.60;;;;;;5048877;28;20498;-37
2022/10/03 12:31:36;;;;;;;3.47;0.40;;;21.00;70.00;;;;;;5053691;28;20127;-37
2022/10/03 12:34:26;;;;;;;2.03;0.38;;;21.30;70.00;;;;;;5040946;28;20045;-37
2022/10/03 12:37:13;;;;;;;3.10;0.50;;;21.50;65.70;;;;;;5048609;28;20398;-38
2022/10/03 12:40:14;;;;;;;2.92;0.30;;;21.80;69.20;;;;;;5052571;28;20056;-38
2022/10/03 12:43:13;;;;;;;6.15;0.50;;;22.10;67.20;;;;;;5043913;28;20118;-38
2022/10/03 12:45:46;;;;;;;2.30;0.30;;;22.20;65.20;;;;;;5034603;28;20049;-38
2022/10/03 12:48:41;;;;;;;5.68;0.50;;;22.30;67.90;;;;;;5055682;28;20493;-38
2022/10/03 12:51:28;;;;;;;4.22;0.40;;;22.20;66.00;;;;;;5050355;28;20048;-39
2022/10/03 12:54:14;;;;;;;3.63;0.40;;;22.00;68.50;;;;;;5040985;28;20037;-38
2022/10/03 12:57:21;;;;;;;2.85;0.35;;;22.00;65.10;;;;;;5044746;28;20029;-37
2022/10/03 12:59:58;;;;;;;2.97;0.50;;;21.70;63.20;;;;;;5041131;28;20045;-37
2022/10/03 13:02:35;;;;;;;3.65;0.50;;;21.20;65.90;;;;;;5041260;28;20081;-36
2022/10/03 13:05:55;;;;;;;3.88;0.40;;;21.00;67.60;;;;;;5055269;28;20124;-36
2022/10/03 13:08:43;;;;;;;2.50;0.35;;;20.60;67.00;;;;;;4988359;28;20514;-37
2022/10/03 13:11:27;;;;;;;4.75;0.50;;;20.40;70.20;;;;;;5048569;28;20047;-36
2022/10/03 13:14:15;;;;;;;3.25;0.50;;;20.40;72.70;;;;;;5042798;28;20072;-36
2022/10/03 13:16:59;;;;;;;4.15;0.50;;;20.50;72.30;;;;;;5044250;28;20072;-37
2022/10/03 13:19:42;;;;;;;5.82;0.60;;;20.70;69.60;;;;;;5043470;28;20494;-37
2022/10/03 13:22:34;;;;;;;3.63;0.50;;;20.90;68.90;;;;;;5050257;28;20040;-37
2022/10/03 13:25:17;;;;;;;3.50;0.60;;;21.30;67.10;;;;;;5045937;28;20422;-37
2022/10/03 13:27:51;;;;;;;3.05;0.40;;;21.50;66.70;;;;;;5044456;28;20091;-38
2022/10/03 13:30:31;;;;;;;4.45;0.60;;;21.90;65.20;;;;;;5041970;28;20087;-37
2022/10/03 13:33:08;;;;;;;4.82;0.65;;;21.90;63.60;;;;;;5048897;28;20533;-43
2022/10/03 13:35:57;;;;;;;3.70;0.50;;;21.80;62.60;;;;;;5052387;28;20075;-38
2022/10/03 13:38:38;;;;;;;1.60;0.40;;;21.40;63.60;;;;;;5051951;28;20045;-37
2022/10/03 13:41:19;;;;;;;3.50;0.43;;;21.40;64.30;;;;;;5048746;28;20139;-37
2022/10/03 13:43:54;;;;;;;2.80;0.57;;;21.50;64.80;;;;;;5052981;28;20036;-38
2022/10/03 13:46:53;;;;;;;3.83;0.52;;;21.70;65.50;;;;;;5049342;28;20494;-36
2022/10/03 13:49:44;;;;;;;2.78;0.43;;;22.00;62.00;;;;;;5045292;28;20057;-36
2022/10/03 13:52:24;;;;;;;1.45;0.32;;;22.10;61.90;;;;;;5046080;28;20045;-37
2022/10/03 13:55:17;;;;;;;2.40;0.40;;;22.20;62.40;;;;;;5039143;28;20045;-37
2022/10/03 13:57:54;;;;;;;3.47;0.50;;;22.40;61.10;;;;;;5043695;28;20044;-37
2022/10/03 14:00:23;;;;;;;4.25;0.40;;;22.60;60.30;;;;;;5045047;28;20041;-38
2022/10/03 14:03:01;;;;;;;4.03;0.52;;;22.70;59.70;;;;;;5049898;28;20103;-36
2022/10/03 14:05:49;;;;;;;7.07;0.60;;;22.80;56.30;;;;;;5042422;28;20509;-36
2022/10/03 14:08:49;;;;;;;2.47;0.52;;;22.80;58.70;;;;;;5049185;28;20041;-35
2022/10/03 14:11:21;;;;;;;4.38;0.50;;;22.50;55.40;;;;;;5055286;28;20126;-36
2022/10/03 14:14:22;;;;;;;3.90;0.47;;;22.30;58.20;;;;;;5050039;28;20048;-36
2022/10/03 14:17:07;;;;;;;1.88;0.50;;;22.30;54.00;;;;;;5050270;28;20045;-36
2022/10/03 14:19:44;;;;;;;2.67;0.40;;;22.20;57.90;;;;;;5033777;28;20044;-37
2022/10/03 14:22:36;;;;;;;3.17;0.50;;;22.10;58.40;;;;;;5049663;28;20517;-36
2022/10/03 14:25:30;;;;;;;6.57;0.40;;;21.90;57.10;;;;;;5052375;28;20443;-37
2022/10/03 14:28:21;;;;;;;3.30;0.45;;;21.60;58.50;;;;;;5029918;28;20051;-37
2022/10/03 14:30:48;;;;;;;3.17;0.43;;;21.40;59.70;;;;;;5049480;28;20520;-37
2022/10/03 14:33:41;;;;;;;1.88;0.30;;;21.20;61.40;;;;;;5051606;28;20040;-36
2022/10/03 14:36:15;;;;;;;4.43;0.30;;;21.00;60.30;;;;;;5053714;28;20049;-36
2022/10/03 14:39:02;;;;;;;2.10;0.40;;;20.70;63.40;;;;;;5049427;28;20044;-37
2022/10/03 14:42:18;;;;;;;2.25;0.60;;;20.60;63.60;;;;;;5044861;28;20509;-37
2022/10/03 14:44:52;;;;;;;3.70;0.60;;;20.60;63.60;;;;;;4990828;28;21563;-37
2022/10/03 14:47:19;;;;;;;3.08;0.50;;;20.50;64.60;;;;;;5045977;28;20040;-37